Time;durP1;ratioP1;P1;durP2;ratioP2;P2;SDS_P1;SDS_P2;PMS_P1;PMS_P2;Temp;Humidity;BMP_temperature;BMP_pressure;BME280_temperature;BME280_humidity;BME280_pressure;Samples;Min_cycle;Max_cycle;Signal;HPM_P1;HPM_P2
2022/04/23 00:00:51;;;;;;;10.18;7.10;;;10.20;59.00;;;;;;5016570;28;20046;-74
2022/04/23 00:03:18;;;;;;;11.82;8.63;;;10.20;59.00;;;;;;5000287;28;20037;-73
2022/04/23 00:05:44;;;;;;;9.68;7.10;;;10.20;59.10;;;;;;5025979;28;20504;-74
2022/04/23 00:08:10;;;;;;;9.65;7.13;;;10.30;59.30;;;;;;5049429;28;20072;-74
2022/04/23 00:10:35;;;;;;;11.27;8.15;;;10.30;59.30;;;;;;5020530;28;20043;-74
2022/04/23 00:13:02;;;;;;;11.13;7.60;;;10.30;59.30;;;;;;5027369;28;20040;-73
2022/04/23 00:15:29;;;;;;;9.82;7.40;;;10.30;59.40;;;;;;5022417;28;20497;-74
2022/04/23 00:17:54;;;;;;;9.75;7.38;;;10.30;59.40;;;;;;5029089;28;20410;-73
2022/04/23 00:20:23;;;;;;;7.57;6.60;;;10.30;59.50;;;;;;5029671;28;20033;-73
2022/04/23 00:22:48;;;;;;;10.70;8.15;;;10.30;59.40;;;;;;5031213;28;20044;-73
2022/04/23 00:25:14;;;;;;;9.77;7.63;;;10.40;59.70;;;;;;5003069;28;20073;-73
2022/04/23 00:27:39;;;;;;;11.63;8.75;;;10.40;59.80;;;;;;5026427;28;20156;-73
2022/04/23 00:30:06;;;;;;;12.68;7.55;;;10.40;59.90;;;;;;5031244;28;20154;-73
2022/04/23 00:32:31;;;;;;;10.85;8.10;;;10.40;60.00;;;;;;5031298;28;20041;-73
2022/04/23 00:34:57;;;;;;;11.10;7.65;;;10.40;60.00;;;;;;5044557;28;20305;-73
2022/04/23 00:37:23;;;;;;;9.82;7.55;;;10.40;59.90;;;;;;5023856;28;20021;-72
2022/04/23 00:39:48;;;;;;;12.70;9.23;;;10.40;59.90;;;;;;5059308;28;20040;-74
2022/04/23 00:42:14;;;;;;;13.80;9.18;;;10.40;60.10;;;;;;5028349;28;20037;-74
2022/04/23 00:44:40;;;;;;;14.27;9.48;;;10.40;60.30;;;;;;5038731;28;20048;-74
2022/04/23 00:47:06;;;;;;;12.68;8.90;;;10.40;60.50;;;;;;5066451;28;20517;-74
2022/04/23 00:49:33;;;;;;;13.35;9.55;;;10.40;60.70;;;;;;5048248;28;20044;-74
2022/04/23 00:51:58;;;;;;;11.38;8.63;;;10.40;60.90;;;;;;5057883;28;20029;-74
2022/04/23 00:54:24;;;;;;;13.70;9.77;;;10.50;61.10;;;;;;5049631;28;20083;-75
2022/04/23 00:56:49;;;;;;;12.90;9.18;;;10.50;61.20;;;;;;5049320;28;20151;-74
2022/04/23 00:59:15;;;;;;;15.15;9.50;;;10.50;61.40;;;;;;5043760;28;20041;-74
2022/04/23 01:01:41;;;;;;;11.85;9.10;;;10.50;61.50;;;;;;5050279;28;20808;-74
2022/04/23 01:04:07;;;;;;;11.75;8.63;;;10.50;61.60;;;;;;5028208;28;20040;-75
2022/04/23 01:06:36;;;;;;;11.07;8.13;;;10.50;61.70;;;;;;5022492;28;20040;-74
2022/04/23 01:09:08;;;;;;;12.77;7.95;;;10.50;61.70;;;;;;5031748;28;20103;-74
2022/04/23 01:11:34;;;;;;;12.90;8.80;;;10.50;61.80;;;;;;5065215;28;20489;-74
2022/04/23 01:14:01;;;;;;;13.02;9.18;;;10.50;61.70;;;;;;5044636;28;20036;-74
2022/04/23 01:16:26;;;;;;;12.40;8.70;;;10.50;61.80;;;;;;5042272;28;20140;-73
2022/04/23 01:18:52;;;;;;;11.98;8.57;;;10.50;61.90;;;;;;5016245;28;20029;-73
2022/04/23 01:21:18;;;;;;;10.00;7.70;;;10.50;62.10;;;;;;5026098;28;20497;-74
2022/04/23 01:23:46;;;;;;;11.90;8.60;;;10.60;62.20;;;;;;5048543;28;20037;-74
2022/04/23 01:26:14;;;;;;;11.38;7.85;;;10.60;62.50;;;;;;5046935;28;20045;-74
2022/04/23 01:28:39;;;;;;;11.82;8.15;;;10.60;62.50;;;;;;5051938;28;20568;-75
2022/04/23 01:31:06;;;;;;;12.80;8.82;;;10.60;62.50;;;;;;5057276;28;20057;-74
2022/04/23 01:33:35;;;;;;;10.32;7.80;;;10.60;62.60;;;;;;5067768;28;20037;-74
2022/04/23 01:36:00;;;;;;;11.38;7.93;;;10.60;62.70;;;;;;5045660;28;20063;-74
2022/04/23 01:38:26;;;;;;;11.50;8.30;;;10.60;62.60;;;;;;5059924;28;20052;-74
2022/04/23 01:40:52;;;;;;;11.60;8.35;;;10.60;62.60;;;;;;5021868;28;20095;-74
2022/04/23 01:43:17;;;;;;;14.95;9.05;;;10.60;62.60;;;;;;5017043;28;20543;-73
2022/04/23 01:45:44;;;;;;;12.00;8.40;;;10.50;62.70;;;;;;5055286;28;20103;-74
2022/04/23 01:48:09;;;;;;;14.88;8.07;;;10.50;62.80;;;;;;5038136;28;20075;-74
2022/04/23 01:50:35;;;;;;;11.40;8.45;;;10.50;63.00;;;;;;5024460;28;20520;-74
2022/04/23 01:53:02;;;;;;;10.00;7.88;;;10.50;63.20;;;;;;5052829;28;20039;-74
2022/04/23 01:55:28;;;;;;;9.50;8.05;;;10.60;63.40;;;;;;5030819;28;20033;-75
2022/04/23 01:57:54;;;;;;;9.65;7.55;;;10.60;63.40;;;;;;5024827;28;20033;-74
2022/04/23 02:00:19;;;;;;;9.00;6.88;;;10.60;63.50;;;;;;5045584;28;20410;-74
2022/04/23 02:02:46;;;;;;;9.48;6.75;;;10.60;63.50;;;;;;5046245;28;20656;-74
2022/04/23 02:05:12;;;;;;;8.68;6.88;;;10.60;63.70;;;;;;5005039;28;20397;-74
2022/04/23 02:07:41;;;;;;;15.45;7.57;;;10.60;63.70;;;;;;5030073;28;20049;-75
2022/04/23 02:10:11;;;;;;;8.88;6.93;;;10.60;63.80;;;;;;5045477;28;20041;-73
2022/04/23 02:12:40;;;;;;;9.65;6.20;;;10.70;64.00;;;;;;5064793;28;20044;-74
2022/04/23 02:15:13;;;;;;;8.25;6.63;;;10.70;63.90;;;;;;5032365;28;20098;-74
2022/04/23 02:17:45;;;;;;;9.38;6.85;;;10.70;64.20;;;;;;5057840;28;20120;-74
2022/04/23 02:20:12;;;;;;;9.43;6.85;;;10.70;64.10;;;;;;5059238;28;20043;-73
2022/04/23 02:22:38;;;;;;;7.57;5.85;;;10.70;64.00;;;;;;5026656;28;20165;-74
2022/04/23 02:25:07;;;;;;;11.32;6.25;;;10.70;64.00;;;;;;5037127;28;20108;-74
2022/04/23 02:27:45;;;;;;;9.10;6.30;;;10.70;64.10;;;;;;5029838;28;20744;-74
2022/04/23 02:30:12;;;;;;;6.82;5.43;;;10.80;64.40;;;;;;5024660;28;20051;-74
2022/04/23 02:32:37;;;;;;;8.02;5.35;;;10.70;64.10;;;;;;5004270;28;20044;-74
2022/04/23 02:35:04;;;;;;;7.75;5.63;;;10.80;64.10;;;;;;4998604;28;20037;-76
2022/04/23 02:37:35;;;;;;;6.47;5.53;;;10.80;64.10;;;;;;5023411;28;20059;-74
2022/04/23 02:40:02;;;;;;;8.77;4.95;;;10.80;64.30;;;;;;5024664;28;20048;-74
2022/04/23 02:42:28;;;;;;;5.78;5.10;;;10.80;64.20;;;;;;5023714;28;20037;-73
2022/04/23 02:44:54;;;;;;;5.78;4.63;;;10.80;64.10;;;;;;5026251;28;20044;-73
2022/04/23 02:47:20;;;;;;;6.20;4.93;;;10.80;65.00;;;;;;5041282;28;20413;-73
2022/04/23 02:49:45;;;;;;;7.20;5.00;;;10.80;64.20;;;;;;5008988;28;20037;-74
2022/04/23 02:52:11;;;;;;;5.85;4.70;;;10.80;64.30;;;;;;5015513;28;20084;-73
2022/04/23 02:54:38;;;;;;;6.53;4.88;;;10.80;64.30;;;;;;5053611;28;20033;-74
2022/04/23 02:57:04;;;;;;;7.22;4.82;;;10.80;64.30;;;;;;5014207;28;20039;-73
2022/04/23 02:59:30;;;;;;;6.38;4.60;;;10.80;64.40;;;;;;5024514;28;20024;-74
2022/04/23 03:01:56;;;;;;;5.80;4.75;;;10.90;64.50;;;;;;5019881;28;20076;-74
2022/04/23 03:04:21;;;;;;;5.70;4.70;;;10.90;64.50;;;;;;5025988;28;20060;-75
2022/04/23 03:06:47;;;;;;;5.35;4.50;;;10.90;64.50;;;;;;5022386;28;20677;-74
2022/04/23 03:09:12;;;;;;;5.45;4.50;;;10.90;64.50;;;;;;5028896;28;20028;-74
2022/04/23 03:11:38;;;;;;;6.85;4.28;;;10.90;64.40;;;;;;5059626;28;20043;-73
2022/04/23 03:14:04;;;;;;;6.18;4.95;;;10.90;64.40;;;;;;5004291;28;20033;-75
2022/04/23 03:16:29;;;;;;;5.30;4.63;;;10.90;64.40;;;;;;5015034;28;20033;-74
2022/04/23 03:18:56;;;;;;;7.53;5.07;;;10.90;64.40;;;;;;5062794;28;20032;-74
2022/04/23 03:21:22;;;;;;;4.68;4.07;;;10.90;64.40;;;;;;5017348;28;20037;-74
2022/04/23 03:23:48;;;;;;;5.18;4.22;;;10.90;64.50;;;;;;5026697;28;20811;-74
2022/04/23 03:26:13;;;;;;;5.22;4.40;;;11.00;64.50;;;;;;5046327;28;20486;-74
2022/04/23 03:28:39;;;;;;;5.05;4.20;;;10.90;65.30;;;;;;5013693;28;20155;-73
2022/04/23 03:31:04;;;;;;;4.93;4.30;;;11.00;64.50;;;;;;5028581;28;20070;-73
2022/04/23 03:33:30;;;;;;;7.13;4.13;;;11.00;64.50;;;;;;5046745;28;20041;-74
2022/04/23 03:35:56;;;;;;;4.72;4.07;;;11.00;64.60;;;;;;5047038;28;20041;-74
2022/04/23 03:38:21;;;;;;;5.28;4.30;;;11.00;64.60;;;;;;5053625;28;20070;-75
2022/04/23 03:40:53;;;;;;;5.10;4.35;;;11.00;64.50;;;;;;5026868;28;20058;-73
2022/04/23 03:43:21;;;;;;;;;;;11.00;64.50;;;;;;5023896;28;20041;-75
2022/04/23 03:45:47;;;;;;;5.22;4.28;;;11.00;64.30;;;;;;5028778;28;19916;-74
2022/04/23 03:48:14;;;;;;;5.63;4.85;;;11.00;64.10;;;;;;5019607;28;20029;-73
2022/04/23 03:50:40;;;;;;;6.07;5.05;;;11.00;64.20;;;;;;5044276;28;20041;-74
2022/04/23 03:53:05;;;;;;;4.88;4.25;;;11.00;64.30;;;;;;5022886;28;20540;-74
2022/04/23 03:55:31;;;;;;;6.85;4.53;;;11.00;64.40;;;;;;5017054;28;20033;-74
2022/04/23 03:57:57;;;;;;;6.75;5.25;;;11.00;64.30;;;;;;5027472;28;20037;-75
2022/04/23 04:00:22;;;;;;;5.47;4.80;;;11.00;64.30;;;;;;5047078;28;20033;-74
2022/04/23 04:02:49;;;;;;;5.45;4.90;;;11.00;64.30;;;;;;5023245;28;20094;-74
2022/04/23 04:05:14;;;;;;;7.22;5.60;;;11.00;64.40;;;;;;5046717;28;20029;-75
2022/04/23 04:07:42;;;;;;;7.30;5.85;;;11.10;64.40;;;;;;5036443;28;20051;-75
2022/04/23 04:10:08;;;;;;;6.90;5.18;;;11.00;64.40;;;;;;5041250;28;20054;-75
2022/04/23 04:12:34;;;;;;;7.43;5.53;;;11.10;64.40;;;;;;5055571;28;20055;-75
2022/04/23 04:15:00;;;;;;;5.95;5.07;;;11.10;64.40;;;;;;5065383;28;20029;-75
2022/04/23 04:17:26;;;;;;;5.53;4.57;;;11.10;64.40;;;;;;5060304;28;20033;-74
2022/04/23 04:19:53;;;;;;;5.63;4.70;;;11.10;64.40;;;;;;5032012;28;20100;-75
2022/04/23 04:22:21;;;;;;;5.85;5.03;;;11.10;64.30;;;;;;5016869;28;20041;-75
2022/04/23 04:24:46;;;;;;;7.40;5.40;;;11.10;64.30;;;;;;5042120;28;20409;-74
2022/04/23 04:27:12;;;;;;;7.55;6.10;;;11.10;64.30;;;;;;5031048;28;20045;-74
2022/04/23 04:29:37;;;;;;;6.38;5.50;;;11.10;64.40;;;;;;5029718;28;20037;-74
2022/04/23 04:32:03;;;;;;;7.63;5.57;;;11.10;64.40;;;;;;5045748;28;20033;-74
2022/04/23 04:34:30;;;;;;;7.18;5.70;;;11.10;64.40;;;;;;5062493;28;20041;-75
2022/04/23 04:37:02;;;;;;;8.15;6.20;;;11.10;64.30;;;;;;5007323;28;20040;-74
2022/04/23 04:39:28;;;;;;;8.13;6.30;;;11.10;64.60;;;;;;5028191;28;20037;-74
2022/04/23 04:41:53;;;;;;;7.93;5.95;;;11.10;64.40;;;;;;5041441;28;20041;-75
2022/04/23 04:44:19;;;;;;;9.02;6.10;;;11.10;64.40;;;;;;5051322;28;20042;-74
2022/04/23 04:46:44;;;;;;;9.55;6.57;;;11.10;64.40;;;;;;5005958;28;20053;-74
2022/04/23 04:49:10;;;;;;;7.22;6.40;;;11.10;64.50;;;;;;5009741;28;20041;-75
2022/04/23 04:51:36;;;;;;;10.82;6.47;;;11.20;64.60;;;;;;5024897;28;20039;-74
2022/04/23 04:54:05;;;;;;;9.68;6.63;;;11.10;64.50;;;;;;5037931;28;20484;-73
2022/04/23 04:56:31;;;;;;;9.07;6.70;;;11.10;64.50;;;;;;5041847;28;20029;-74
2022/04/23 04:58:57;;;;;;;10.63;7.25;;;11.20;64.60;;;;;;5015572;28;20075;-74
2022/04/23 05:01:22;;;;;;;10.32;7.35;;;11.20;64.60;;;;;;5025278;28;20041;-74
2022/04/23 05:03:48;;;;;;;11.00;7.40;;;11.20;64.60;;;;;;5061394;28;20033;-74
2022/04/23 05:06:13;;;;;;;12.38;7.63;;;11.20;64.70;;;;;;5030721;28;20025;-74
2022/04/23 05:08:39;;;;;;;9.50;6.78;;;11.20;64.80;;;;;;5029755;28;20048;-74
2022/04/23 05:11:05;;;;;;;8.88;6.90;;;11.20;64.80;;;;;;5045369;28;20037;-73
2022/04/23 05:13:30;;;;;;;10.65;7.65;;;11.20;64.70;;;;;;5031235;28;20029;-74
2022/04/23 05:15:56;;;;;;;11.60;7.55;;;11.20;64.70;;;;;;5043144;28;20036;-73
2022/04/23 05:18:22;;;;;;;10.60;7.70;;;11.20;64.70;;;;;;5012923;28;20033;-72
2022/04/23 05:20:47;;;;;;;9.85;7.18;;;11.20;65.30;;;;;;5012937;28;20112;-74
2022/04/23 05:23:13;;;;;;;10.10;7.25;;;11.20;64.70;;;;;;5005416;28;20092;-75
2022/04/23 05:25:39;;;;;;;10.48;7.88;;;11.30;64.80;;;;;;5044795;28;20071;-75
2022/04/23 05:28:04;;;;;;;9.05;7.32;;;11.30;64.80;;;;;;5011246;28;20041;-73
2022/04/23 05:30:30;;;;;;;11.23;8.45;;;11.30;64.80;;;;;;5040148;28;20109;-73
2022/04/23 05:32:55;;;;;;;12.40;7.65;;;11.30;64.80;;;;;;5021909;28;20037;-72
2022/04/23 05:35:21;;;;;;;10.20;8.05;;;11.30;64.80;;;;;;5042830;28;20044;-72
2022/04/23 05:37:46;;;;;;;12.98;9.00;;;11.30;64.70;;;;;;5009190;28;20041;-73
2022/04/23 05:40:12;;;;;;;12.15;8.68;;;11.30;64.70;;;;;;5035861;28;20037;-73
2022/04/23 05:42:38;;;;;;;11.32;8.65;;;11.30;64.70;;;;;;4981019;28;20033;-74
2022/04/23 05:45:04;;;;;;;13.05;9.10;;;11.30;64.70;;;;;;5010744;28;20045;-76
2022/04/23 05:47:29;;;;;;;14.57;8.85;;;11.40;64.80;;;;;;5022276;28;20098;-76
2022/04/23 05:49:58;;;;;;;13.05;8.68;;;11.30;64.80;;;;;;5045038;28;20057;-74
2022/04/23 05:52:27;;;;;;;12.50;9.02;;;11.40;64.90;;;;;;4997343;28;20116;-75
2022/04/23 05:54:53;;;;;;;13.68;9.68;;;11.40;64.90;;;;;;5016909;28;20037;-75
2022/04/23 05:57:19;;;;;;;14.73;9.70;;;11.40;64.90;;;;;;5019961;28;20836;-76
2022/04/23 05:59:44;;;;;;;14.20;9.90;;;11.40;64.90;;;;;;5001865;28;20683;-76
2022/04/23 06:02:13;;;;;;;12.57;9.77;;;11.50;64.90;;;;;;5009197;28;20044;-76
2022/04/23 06:04:38;;;;;;;11.98;9.18;;;11.50;64.90;;;;;;5019878;28;20071;-74
2022/04/23 06:07:04;;;;;;;13.48;9.95;;;11.50;64.90;;;;;;5004787;28;20128;-75
2022/04/23 06:09:30;;;;;;;13.68;9.57;;;11.50;64.90;;;;;;5015650;28;20029;-75
2022/04/23 06:11:55;;;;;;;14.02;9.77;;;11.60;64.80;;;;;;5049152;28;20039;-75
2022/04/23 06:14:21;;;;;;;13.82;9.32;;;11.60;64.80;;;;;;5015873;28;20635;-75
2022/04/23 06:16:46;;;;;;;16.30;10.43;;;11.60;64.80;;;;;;5017753;28;20036;-75
2022/04/23 06:19:12;;;;;;;13.45;9.45;;;11.60;64.80;;;;;;5000611;28;20087;-74
2022/04/23 06:21:37;;;;;;;12.73;9.73;;;11.70;65.40;;;;;;4993989;28;20045;-74
2022/04/23 06:24:03;;;;;;;15.48;10.82;;;11.70;64.80;;;;;;5051359;28;20049;-74
2022/04/23 06:26:29;;;;;;;14.38;9.35;;;11.70;64.70;;;;;;5032885;28;20033;-75
2022/04/23 06:28:55;;;;;;;14.07;10.02;;;11.80;64.80;;;;;;4996661;28;20053;-74
2022/04/23 06:31:22;;;;;;;14.93;10.75;;;11.80;64.60;;;;;;5024169;28;20453;-75
2022/04/23 06:33:47;;;;;;;15.88;11.13;;;11.80;64.70;;;;;;5031891;28;20041;-74
2022/04/23 06:36:13;;;;;;;14.32;10.68;;;11.90;64.80;;;;;;5012205;28;20047;-73
2022/04/23 06:38:39;;;;;;;15.73;10.70;;;11.90;64.80;;;;;;5015341;28;20067;-74
2022/04/23 06:41:04;;;;;;;15.35;10.70;;;11.90;64.70;;;;;;5008979;28;20052;-74
2022/04/23 06:43:30;;;;;;;15.10;10.60;;;12.00;64.80;;;;;;5023140;28;20099;-74
2022/04/23 06:45:55;;;;;;;14.23;10.73;;;12.10;64.70;;;;;;5023465;28;20048;-73
2022/04/23 06:48:21;;;;;;;16.23;10.40;;;12.10;64.70;;;;;;5045713;28;20037;-72
2022/04/23 06:50:47;;;;;;;18.90;11.55;;;12.20;64.70;;;;;;5046930;28;20127;-75
2022/04/23 06:53:12;;;;;;;17.30;11.05;;;12.20;64.50;;;;;;5026693;28;20135;-73
2022/04/23 06:55:38;;;;;;;17.52;11.95;;;12.30;64.60;;;;;;5017328;28;20029;-74
2022/04/23 06:58:03;;;;;;;17.80;11.68;;;12.40;64.60;;;;;;5041080;28;20128;-76
2022/04/23 07:00:29;;;;;;;17.40;11.68;;;12.50;64.50;;;;;;5028507;28;20048;-74
2022/04/23 07:02:55;;;;;;;18.08;12.15;;;12.60;64.30;;;;;;5043590;28;20332;-75
2022/04/23 07:05:21;;;;;;;19.38;12.65;;;12.80;64.10;;;;;;4997160;28;20041;-75
2022/04/23 07:08:01;;;;;;;15.93;11.73;;;12.90;64.00;;;;;;5018843;28;20515;-77
2022/04/23 07:10:27;;;;;;;15.63;11.05;;;13.10;64.30;;;;;;5030374;28;20032;-74
2022/04/23 07:12:53;;;;;;;15.27;10.98;;;13.20;63.70;;;;;;5046371;28;20037;-75
2022/04/23 07:15:19;;;;;;;16.48;11.18;;;13.30;63.40;;;;;;5052633;28;20036;-74
2022/04/23 07:17:46;;;;;;;16.63;11.07;;;13.40;63.20;;;;;;5041894;28;20033;-74
2022/04/23 07:20:12;;;;;;;17.65;11.90;;;13.50;63.10;;;;;;5022647;28;20357;-74
2022/04/23 07:22:38;;;;;;;17.60;12.20;;;13.60;62.90;;;;;;5013800;28;20055;-74
2022/04/23 07:25:04;;;;;;;14.43;10.85;;;13.70;62.80;;;;;;5036490;28;20498;-76
2022/04/23 07:27:29;;;;;;;16.77;11.90;;;13.80;62.60;;;;;;5034714;28;20033;-74
2022/04/23 07:29:55;;;;;;;17.33;11.80;;;13.90;62.40;;;;;;5026137;28;20048;-75
2022/04/23 07:32:21;;;;;;;14.32;10.40;;;14.10;62.20;;;;;;5053208;28;20128;-75
2022/04/23 07:37:31;;;;;;;15.15;11.18;;;14.30;61.70;;;;;;5020617;28;20499;-75
2022/04/23 07:39:58;;;;;;;15.93;11.30;;;14.40;61.50;;;;;;4992124;28;20045;-75
2022/04/23 07:42:24;;;;;;;14.77;11.13;;;14.40;62.00;;;;;;5011424;28;20033;-75
2022/04/23 07:44:50;;;;;;;17.02;11.05;;;14.50;61.10;;;;;;5017399;28;20143;-75
2022/04/23 07:47:15;;;;;;;13.30;10.30;;;14.60;60.90;;;;;;5039641;28;20565;-75
2022/04/23 07:49:41;;;;;;;16.58;10.48;;;14.60;60.80;;;;;;5028254;28;20073;-76
2022/04/23 07:52:07;;;;;;;15.73;10.60;;;14.60;60.60;;;;;;5025689;28;20095;-76
2022/04/23 07:54:32;;;;;;;16.25;11.25;;;14.70;60.60;;;;;;5045233;28;20045;-76
2022/04/23 07:56:59;;;;;;;15.40;11.48;;;14.70;60.50;;;;;;5046023;28;20370;-76
2022/04/23 07:59:24;;;;;;;15.43;11.38;;;14.80;60.40;;;;;;5044462;28;20064;-75
2022/04/23 08:01:51;;;;;;;13.70;10.35;;;14.80;60.10;;;;;;5025157;28;20040;-75
2022/04/23 08:04:16;;;;;;;16.90;11.82;;;14.80;60.00;;;;;;5040094;28;20080;-76
2022/04/23 08:06:42;;;;;;;16.38;10.82;;;14.90;60.00;;;;;;5011894;28;20061;-75
2022/04/23 08:09:07;;;;;;;18.38;10.95;;;14.90;59.90;;;;;;5008968;28;20037;-76
2022/04/23 08:11:33;;;;;;;16.15;10.25;;;14.90;59.80;;;;;;5012709;28;20445;-74
2022/04/23 08:13:59;;;;;;;14.48;10.77;;;15.00;59.80;;;;;;5042951;28;20041;-72
2022/04/23 08:16:26;;;;;;;17.02;11.20;;;15.00;59.60;;;;;;5028203;28;20402;-73
2022/04/23 08:18:52;;;;;;;13.88;10.23;;;15.00;59.40;;;;;;5039427;28;20045;-73
2022/04/23 08:21:18;;;;;;;15.27;10.73;;;15.00;59.40;;;;;;5030326;28;20034;-75
2022/04/23 08:23:43;;;;;;;15.27;11.82;;;15.00;59.40;;;;;;5029628;28;20045;-71
2022/04/23 08:26:09;;;;;;;16.33;10.63;;;15.00;59.30;;;;;;5004792;28;20030;-73
2022/04/23 08:31:18;;;;;;;17.38;12.05;;;15.10;59.30;;;;;;5007903;28;20567;-74
2022/04/23 08:34:00;;;;;;;19.23;12.82;;;15.10;59.10;;;;;;5026430;28;20029;-73
2022/04/23 08:36:27;;;;;;;18.90;12.10;;;15.20;59.10;;;;;;5046043;28;20041;-74
2022/04/23 08:38:55;;;;;;;15.23;10.40;;;15.20;58.90;;;;;;5011916;28;20048;-72
2022/04/23 08:41:28;;;;;;;15.85;11.10;;;15.10;58.90;;;;;;5030284;28;20043;-72
2022/04/23 08:43:56;;;;;;;15.27;10.90;;;15.10;58.90;;;;;;5004982;28;20045;-73
2022/04/23 08:46:22;;;;;;;17.15;11.23;;;15.10;58.80;;;;;;5042270;28;20071;-72
2022/04/23 08:48:50;;;;;;;27.65;13.13;;;15.10;58.80;;;;;;5016277;28;20164;-72
2022/04/23 08:51:17;;;;;;;20.33;11.88;;;15.10;58.80;;;;;;5029689;28;20040;-72
2022/04/23 08:53:43;;;;;;;17.85;12.48;;;15.10;58.70;;;;;;5032332;28;20040;-72
2022/04/23 08:56:08;;;;;;;21.20;12.25;;;15.10;58.70;;;;;;5014542;28;20029;-72
2022/04/23 08:58:34;;;;;;;21.08;13.30;;;15.10;58.70;;;;;;5014253;28;20052;-72
2022/04/23 09:00:59;;;;;;;19.27;12.40;;;15.10;58.70;;;;;;5050349;28;20075;-72
2022/04/23 09:03:25;;;;;;;19.48;12.43;;;15.10;58.70;;;;;;5035269;28;20071;-72
2022/04/23 09:05:51;;;;;;;18.35;12.43;;;15.10;58.80;;;;;;5025711;28;20740;-75
2022/04/23 09:08:17;;;;;;;20.90;13.45;;;15.20;58.30;;;;;;5013966;28;20056;-72
2022/04/23 09:10:46;;;;;;;19.33;13.57;;;15.20;58.70;;;;;;5045662;28;20120;-73
2022/04/23 09:13:11;;;;;;;21.63;13.98;;;15.20;58.60;;;;;;5018083;28;20033;-73
2022/04/23 09:24:10;;;;;;;21.10;13.18;;;15.40;58.60;;;;;;5027593;28;20054;-75
2022/04/23 09:26:35;;;;;;;18.70;13.40;;;15.50;58.60;;;;;;5032809;28;20028;-76
2022/04/23 09:29:12;;;;;;;23.60;13.98;;;15.50;58.40;;;;;;5028180;28;20638;-75
2022/04/23 09:31:38;;;;;;;20.63;13.23;;;15.50;58.30;;;;;;5008087;28;20617;-75
2022/04/23 09:34:15;;;;;;;21.73;13.32;;;15.50;58.30;;;;;;5015904;28;20028;-75
2022/04/23 09:36:54;;;;;;;21.10;13.98;;;15.50;58.30;;;;;;5047649;28;20053;-75
2022/04/23 09:39:36;;;;;;;21.08;13.68;;;15.60;58.30;;;;;;5012425;28;20671;-75
2022/04/23 09:42:12;;;;;;;19.58;13.75;;;15.60;58.40;;;;;;5017012;28;20630;-75
2022/04/23 09:44:38;;;;;;;20.92;13.90;;;15.70;58.30;;;;;;5046891;28;20509;-75
2022/04/23 09:47:04;;;;;;;20.77;12.90;;;15.80;58.10;;;;;;5039534;28;20039;-72
2022/04/23 09:49:30;;;;;;;23.83;14.85;;;15.90;58.10;;;;;;5020623;28;20079;-74
2022/04/23 09:52:08;;;;;;;23.27;15.10;;;15.90;57.90;;;;;;5012941;28;20033;-72
2022/04/23 09:54:34;;;;;;;21.20;13.93;;;16.00;57.80;;;;;;5033322;28;20506;-73
2022/04/23 09:57:00;;;;;;;20.63;13.43;;;16.10;57.70;;;;;;5049200;28;20039;-72
2022/04/23 09:59:26;;;;;;;21.27;13.57;;;16.20;57.80;;;;;;5009309;28;20533;-73
2022/04/23 10:01:53;;;;;;;21.75;13.25;;;16.30;57.60;;;;;;5032079;28;20492;-73
2022/04/23 10:04:29;;;;;;;22.45;13.65;;;16.30;57.50;;;;;;5024750;28;20037;-74
2022/04/23 10:06:56;;;;;;;21.17;12.95;;;16.40;57.20;;;;;;5058924;28;20641;-76
2022/04/23 10:09:26;;;;;;;19.45;13.38;;;16.40;57.10;;;;;;5022539;28;20809;-74
2022/04/23 10:12:07;;;;;;;17.98;12.75;;;16.40;57.00;;;;;;5010575;28;20040;-75
2022/04/23 10:14:35;;;;;;;25.25;14.65;;;16.50;57.60;;;;;;5024406;28;20075;-75
2022/04/23 10:17:04;;;;;;;18.70;12.95;;;16.50;56.70;;;;;;5015937;28;20035;-74
2022/04/23 10:19:29;;;;;;;21.10;14.13;;;16.50;56.70;;;;;;5024627;28;20041;-74
2022/04/23 10:21:59;;;;;;;19.60;13.68;;;16.50;56.50;;;;;;5024517;28;20036;-74
2022/04/23 10:24:40;;;;;;;19.42;12.85;;;16.50;56.50;;;;;;5000574;28;20044;-74
2022/04/23 10:27:10;;;;;;;21.67;14.05;;;16.50;56.40;;;;;;5038706;28;20036;-74
2022/04/23 10:29:36;;;;;;;21.88;13.25;;;16.60;56.50;;;;;;5040885;28;20102;-73
2022/04/23 10:32:10;;;;;;;21.92;13.77;;;16.60;56.50;;;;;;5006382;28;20036;-76
2022/04/23 10:34:36;;;;;;;18.70;11.77;;;16.60;56.20;;;;;;5021144;28;20132;-75
2022/04/23 10:37:22;;;;;;;18.88;12.45;;;16.60;56.20;;;;;;5020139;28;21320;-74
2022/04/23 10:39:53;;;;;;;18.55;12.32;;;16.70;56.10;;;;;;5016944;28;20047;-74
2022/04/23 10:42:19;;;;;;;19.92;13.52;;;16.70;56.00;;;;;;5034308;28;20469;-75
2022/04/23 10:44:46;;;;;;;18.52;13.15;;;16.80;56.00;;;;;;5025942;28;20072;-75
2022/04/23 10:47:12;;;;;;;19.92;12.73;;;16.80;55.80;;;;;;5033966;28;20114;-75
2022/04/23 10:49:38;;;;;;;16.63;12.07;;;16.80;55.60;;;;;;5042685;28;20055;-75
2022/04/23 10:52:04;;;;;;;16.05;11.48;;;16.90;55.50;;;;;;5054892;28;20033;-75
2022/04/23 10:54:49;;;;;;;15.02;10.77;;;16.90;55.40;;;;;;5056049;28;20033;-75
2022/04/23 10:57:15;;;;;;;14.25;10.90;;;17.00;55.30;;;;;;5026127;28;20532;-74
2022/04/23 10:59:48;;;;;;;13.50;9.98;;;17.10;55.30;;;;;;4972465;28;20175;-74
2022/04/23 11:02:34;;;;;;;16.13;11.05;;;17.10;55.00;;;;;;5019113;28;20595;-75
2022/04/23 11:13:24;;;;;;;15.35;11.23;;;17.10;54.60;;;;;;5036811;28;20087;-74
2022/04/23 11:16:14;;;;;;;15.48;11.50;;;17.10;54.50;;;;;;5037553;28;20033;-74
2022/04/23 11:18:41;;;;;;;15.73;9.93;;;17.10;54.30;;;;;;5004179;28;20057;-75
2022/04/23 11:21:26;;;;;;;18.02;11.68;;;17.20;55.10;;;;;;5024059;28;20115;-75
2022/04/23 11:23:53;;;;;;;13.95;9.82;;;17.20;54.10;;;;;;5029189;28;20033;-74
2022/04/23 11:26:26;;;;;;;16.95;11.43;;;17.30;54.30;;;;;;5034893;28;20064;-74
2022/04/23 11:28:58;;;;;;;18.90;11.93;;;17.30;54.20;;;;;;5043708;28;20037;-75
2022/04/23 11:31:24;;;;;;;18.33;11.65;;;17.30;54.10;;;;;;5009101;28;20041;-74
2022/04/23 11:33:51;;;;;;;16.25;11.73;;;17.40;54.00;;;;;;5014766;28;20037;-75
2022/04/23 11:36:18;;;;;;;17.25;10.43;;;17.40;53.90;;;;;;5019375;28;20069;-76
2022/04/23 11:38:44;;;;;;;18.30;11.40;;;17.40;53.80;;;;;;5057503;28;20033;-75
2022/04/23 11:41:09;;;;;;;14.40;10.50;;;17.40;53.70;;;;;;5041514;28;20131;-76
2022/04/23 11:43:37;;;;;;;17.70;11.80;;;17.40;53.70;;;;;;5049786;28;20099;-73
2022/04/23 11:46:04;;;;;;;14.77;10.77;;;17.50;53.90;;;;;;5039313;28;20037;-75
2022/04/23 11:48:47;;;;;;;15.73;11.30;;;17.60;53.90;;;;;;5045751;28;20036;-76
2022/04/23 11:51:13;;;;;;;14.63;10.23;;;17.70;53.90;;;;;;5062257;28;20664;-75
2022/04/23 11:53:57;;;;;;;18.35;11.93;;;17.80;53.80;;;;;;5044550;28;20052;-75
2022/04/23 11:56:24;;;;;;;11.57;9.52;;;17.90;53.40;;;;;;5015478;28;20432;-75
2022/04/23 11:58:57;;;;;;;13.23;8.40;;;18.00;53.40;;;;;;5043777;28;20033;-75
2022/04/23 12:01:26;;;;;;;14.40;8.90;;;18.00;52.90;;;;;;5044474;28;20033;-75
2022/04/23 12:03:53;;;;;;;12.27;8.73;;;18.00;52.70;;;;;;5045843;28;20044;-74
2022/04/23 12:06:19;;;;;;;12.10;9.23;;;18.00;52.50;;;;;;5001604;28;20087;-74
2022/04/23 12:08:45;;;;;;;12.20;8.90;;;18.00;52.30;;;;;;5030916;28;20033;-76
2022/04/23 12:11:23;;;;;;;12.38;8.75;;;18.00;52.20;;;;;;5037260;28;20029;-76
2022/04/23 12:13:49;;;;;;;13.90;8.68;;;18.00;51.80;;;;;;5023073;28;20043;-74
2022/04/23 12:16:38;;;;;;;10.32;8.75;;;17.90;52.00;;;;;;5025158;28;20048;-74
2022/04/23 12:19:07;;;;;;;12.20;8.85;;;17.90;51.70;;;;;;5039880;28;20640;-75
2022/04/23 12:21:33;;;;;;;9.50;8.07;;;18.00;51.90;;;;;;5024770;28;20045;-75
2022/04/23 12:23:59;;;;;;;9.80;7.53;;;18.00;51.90;;;;;;5043313;28;20037;-75
2022/04/23 12:26:30;;;;;;;10.68;8.23;;;18.00;51.80;;;;;;5019237;28;20037;-75
2022/04/23 12:42:28;;;;;;;11.02;8.73;;;18.20;51.60;;;;;;5039694;28;20404;-75
2022/04/23 12:44:53;;;;;;;10.98;7.95;;;18.20;51.40;;;;;;5027816;28;20041;-75
2022/04/23 12:47:33;;;;;;;10.25;8.75;;;18.20;51.40;;;;;;5028433;28;20041;-75
2022/04/23 12:50:00;;;;;;;14.18;8.75;;;18.20;51.10;;;;;;5008816;28;20536;-76
2022/04/23 12:52:31;;;;;;;12.25;8.75;;;18.20;51.20;;;;;;4999668;28;20528;-75
2022/04/23 12:55:20;;;;;;;13.70;9.13;;;18.30;51.20;;;;;;5023235;28;20083;-75
2022/04/23 12:57:46;;;;;;;13.77;10.60;;;18.20;51.10;;;;;;5052627;28;20043;-75
2022/04/23 13:00:20;;;;;;;14.48;9.50;;;18.20;51.10;;;;;;5010110;28;20443;-75
2022/04/23 13:02:50;;;;;;;12.48;9.30;;;18.20;51.00;;;;;;5009896;28;20064;-75
2022/04/23 13:05:15;;;;;;;18.85;11.05;;;18.20;50.90;;;;;;5009639;28;20045;-76
2022/04/23 13:10:25;;;;;;;19.83;12.55;;;18.20;50.80;;;;;;5028089;28;20083;-73
2022/04/23 13:12:51;;;;;;;16.98;10.57;;;18.20;50.60;;;;;;5030818;28;20036;-72
2022/04/23 13:15:16;;;;;;;15.80;11.13;;;18.10;50.60;;;;;;5019701;28;20052;-73